createdAt,value
2023-05-19T00:00:42.000Z,10.32
2023-05-19T00:01:42.000Z,10.26
2023-05-19T00:02:42.000Z,10.28
2023-05-19T00:03:42.000Z,10.26
2023-05-19T00:04:42.000Z,10.30
2023-05-19T00:05:42.000Z,10.24
2023-05-19T00:06:43.000Z,10.26
2023-05-19T00:07:43.000Z,10.26
2023-05-19T00:08:43.000Z,10.24
2023-05-19T00:09:43.000Z,10.22
2023-05-19T00:10:43.000Z,10.22
2023-05-19T00:11:43.000Z,10.22
2023-05-19T00:12:43.000Z,10.24
2023-05-19T00:13:44.000Z,10.22
2023-05-19T00:14:44.000Z,10.19
2023-05-19T00:15:44.000Z,10.17
2023-05-19T00:16:44.000Z,10.18
2023-05-19T00:17:44.000Z,10.17
2023-05-19T00:18:44.000Z,10.15
2023-05-19T00:19:44.000Z,10.18
2023-05-19T00:20:44.000Z,10.17
2023-05-19T00:21:45.000Z,10.15
2023-05-19T00:22:45.000Z,10.10
2023-05-19T00:23:45.000Z,10.09
2023-05-19T00:24:45.000Z,10.04
2023-05-19T00:25:45.000Z,10.06
2023-05-19T00:26:45.000Z,10.03
2023-05-19T00:27:45.000Z,10.04
2023-05-19T00:28:46.000Z,10.04
2023-05-19T00:29:46.000Z,10.00
2023-05-19T00:30:46.000Z,9.99
2023-05-19T00:31:46.000Z,10.01
2023-05-19T00:32:46.000Z,10.01
2023-05-19T00:33:46.000Z,10.01
2023-05-19T00:34:46.000Z,9.99
2023-05-19T00:35:47.000Z,9.96
2023-05-19T00:36:47.000Z,9.96
2023-05-19T00:37:47.000Z,10.00
2023-05-19T00:38:47.000Z,9.93
2023-05-19T00:39:47.000Z,9.97
2023-05-19T00:40:47.000Z,9.93
2023-05-19T00:41:47.000Z,9.94
2023-05-19T00:42:47.000Z,9.93
2023-05-19T00:43:48.000Z,9.91
2023-05-19T00:44:48.000Z,9.89
2023-05-19T00:45:48.000Z,9.89
2023-05-19T00:46:48.000Z,9.85
2023-05-19T00:47:48.000Z,9.83
2023-05-19T00:48:48.000Z,9.88
2023-05-19T00:49:48.000Z,9.83
2023-05-19T00:50:49.000Z,9.86
2023-05-19T00:51:49.000Z,9.81
2023-05-19T00:52:49.000Z,9.83
2023-05-19T00:53:49.000Z,9.83
2023-05-19T00:54:49.000Z,9.82
2023-05-19T00:55:49.000Z,9.78
2023-05-19T00:56:49.000Z,9.76
2023-05-19T00:57:50.000Z,9.75
2023-05-19T00:58:50.000Z,9.78
2023-05-19T00:59:50.000Z,9.75
2023-05-19T01:00:50.000Z,9.73
2023-05-19T01:01:50.000Z,9.71
2023-05-19T01:02:50.000Z,9.67
2023-05-19T01:03:50.000Z,9.68
2023-05-19T01:04:51.000Z,9.68
2023-05-19T01:05:51.000Z,9.67
2023-05-19T01:06:51.000Z,9.63
2023-05-19T01:07:51.000Z,9.63
2023-05-19T01:08:51.000Z,9.64
2023-05-19T01:09:51.000Z,9.60
2023-05-19T01:10:51.000Z,9.60
2023-05-19T01:11:52.000Z,9.56
2023-05-19T01:12:52.000Z,9.57
2023-05-19T01:13:52.000Z,9.56
2023-05-19T01:14:52.000Z,9.53
2023-05-19T01:15:52.000Z,9.53
2023-05-19T01:16:52.000Z,9.53
2023-05-19T01:17:52.000Z,9.53
2023-05-19T01:18:52.000Z,9.50
2023-05-19T01:19:53.000Z,9.50
2023-05-19T01:20:53.000Z,9.48
2023-05-19T01:21:53.000Z,9.50
2023-05-19T01:22:53.000Z,9.50
2023-05-19T01:23:53.000Z,9.48
2023-05-19T01:24:53.000Z,9.43
2023-05-19T01:25:53.000Z,9.45
2023-05-19T01:26:54.000Z,9.43
2023-05-19T01:27:54.000Z,9.43
2023-05-19T01:28:54.000Z,9.40
2023-05-19T01:29:54.000Z,9.40
2023-05-19T01:30:54.000Z,9.39
2023-05-19T01:31:54.000Z,9.42
2023-05-19T01:32:54.000Z,9.34
2023-05-19T01:33:55.000Z,9.32
2023-05-19T01:34:55.000Z,9.34
2023-05-19T01:35:55.000Z,9.31
2023-05-19T01:36:55.000Z,9.30
2023-05-19T01:37:55.000Z,9.32
2023-05-19T01:38:55.000Z,9.27
2023-05-19T01:39:55.000Z,9.28
2023-05-19T01:40:56.000Z,9.31
2023-05-19T01:41:56.000Z,9.28
2023-05-19T01:42:56.000Z,9.30
2023-05-19T01:43:56.000Z,9.25
2023-05-19T01:44:56.000Z,9.24
2023-05-19T01:45:56.000Z,9.21
2023-05-19T01:46:56.000Z,9.24
2023-05-19T01:47:57.000Z,9.23
2023-05-19T01:48:57.000Z,9.21
2023-05-19T01:49:57.000Z,9.18
2023-05-19T01:50:57.000Z,9.18
2023-05-19T01:51:57.000Z,9.16
2023-05-19T01:52:57.000Z,9.13
2023-05-19T01:53:57.000Z,9.10
2023-05-19T01:54:58.000Z,9.12
2023-05-19T01:55:58.000Z,9.10
2023-05-19T01:56:58.000Z,9.06
2023-05-19T01:57:58.000Z,9.06
2023-05-19T01:58:58.000Z,9.09
2023-05-19T01:59:58.000Z,9.09
2023-05-19T02:00:58.000Z,9.05
2023-05-19T02:01:59.000Z,9.09
2023-05-19T02:02:59.000Z,9.04
2023-05-19T02:03:59.000Z,9.01
2023-05-19T02:04:59.000Z,9.04
2023-05-19T02:05:59.000Z,8.97
2023-05-19T02:06:59.000Z,9.01
2023-05-19T02:07:59.000Z,8.96
2023-05-19T02:09:00.000Z,8.93
2023-05-19T02:10:00.000Z,8.96
2023-05-19T02:11:00.000Z,8.96
2023-05-19T02:12:00.000Z,8.94
2023-05-19T02:13:00.000Z,8.91
2023-05-19T02:14:00.000Z,8.91
2023-05-19T02:15:00.000Z,8.93
2023-05-19T02:16:01.000Z,8.88
2023-05-19T02:17:01.000Z,8.90
2023-05-19T02:18:01.000Z,8.90
2023-05-19T02:19:01.000Z,8.86
2023-05-19T02:20:01.000Z,8.88
2023-05-19T02:21:01.000Z,8.84
2023-05-19T02:22:01.000Z,8.84
2023-05-19T02:23:01.000Z,8.84
2023-05-19T02:24:02.000Z,8.81
2023-05-19T02:25:02.000Z,8.78
2023-05-19T02:26:02.000Z,8.76
2023-05-19T02:27:02.000Z,8.76
2023-05-19T02:28:02.000Z,8.76
2023-05-19T02:29:02.000Z,8.76
2023-05-19T02:30:02.000Z,8.75
2023-05-19T02:31:03.000Z,8.73
2023-05-19T02:32:03.000Z,8.73
2023-05-19T02:33:03.000Z,8.73
2023-05-19T02:34:03.000Z,8.69
2023-05-19T02:35:03.000Z,8.71
2023-05-19T02:36:03.000Z,8.71
2023-05-19T02:37:03.000Z,8.69
2023-05-19T02:38:04.000Z,8.68
2023-05-19T02:39:04.000Z,8.72
2023-05-19T02:40:04.000Z,8.72
2023-05-19T02:41:04.000Z,8.71
2023-05-19T02:42:04.000Z,8.69
2023-05-19T02:43:04.000Z,8.68
2023-05-19T02:44:04.000Z,8.72
2023-05-19T02:45:05.000Z,8.71
2023-05-19T02:46:05.000Z,8.71
2023-05-19T02:47:05.000Z,8.71
2023-05-19T02:48:05.000Z,8.68
2023-05-19T02:49:05.000Z,8.71
2023-05-19T02:50:05.000Z,8.69
2023-05-19T02:51:05.000Z,8.71
2023-05-19T02:52:06.000Z,8.68
2023-05-19T02:53:06.000Z,8.69
2023-05-19T02:54:06.000Z,8.72
2023-05-19T02:55:06.000Z,8.72
2023-05-19T02:56:06.000Z,8.68
2023-05-19T02:57:06.000Z,8.69
2023-05-19T02:58:07.000Z,8.71
2023-05-19T02:59:07.000Z,8.68
2023-05-19T03:00:07.000Z,8.63
2023-05-19T03:01:07.000Z,8.68
2023-05-19T03:02:07.000Z,8.69
2023-05-19T03:03:07.000Z,8.60
2023-05-19T03:04:07.000Z,8.65
2023-05-19T03:05:08.000Z,8.63
2023-05-19T03:06:08.000Z,8.62
2023-05-19T03:07:08.000Z,8.62
2023-05-19T03:08:08.000Z,8.62
2023-05-19T03:09:08.000Z,8.58
2023-05-19T03:10:08.000Z,8.60
2023-05-19T03:11:08.000Z,8.63
2023-05-19T03:12:09.000Z,8.63
2023-05-19T03:13:09.000Z,8.60
2023-05-19T03:14:09.000Z,8.58
2023-05-19T03:15:09.000Z,8.62
2023-05-19T03:16:09.000Z,8.57
2023-05-19T03:17:09.000Z,8.62
2023-05-19T03:18:09.000Z,8.58
2023-05-19T03:19:10.000Z,8.58
2023-05-19T03:20:10.000Z,8.60
2023-05-19T03:21:10.000Z,8.60
2023-05-19T03:22:10.000Z,8.57
2023-05-19T03:23:10.000Z,8.62
2023-05-19T03:24:10.000Z,8.58
2023-05-19T03:25:10.000Z,8.58
2023-05-19T03:26:11.000Z,8.58
2023-05-19T03:27:11.000Z,8.57
2023-05-19T03:28:11.000Z,8.63
2023-05-19T03:29:11.000Z,8.57
2023-05-19T03:30:11.000Z,8.54
2023-05-19T03:31:11.000Z,8.62
2023-05-19T03:32:12.000Z,8.58
2023-05-19T03:33:12.000Z,8.60
2023-05-19T03:34:12.000Z,8.58
2023-05-19T03:35:12.000Z,8.55
2023-05-19T03:36:12.000Z,8.55
2023-05-19T03:37:12.000Z,8.58
2023-05-19T03:38:12.000Z,8.58
2023-05-19T03:39:13.000Z,8.62
2023-05-19T03:40:13.000Z,8.58
2023-05-19T03:41:13.000Z,8.57
2023-05-19T03:42:13.000Z,8.58
2023-05-19T03:43:13.000Z,8.60
2023-05-19T03:44:13.000Z,8.58
2023-05-19T03:45:13.000Z,8.58
2023-05-19T03:46:14.000Z,8.58
2023-05-19T03:47:14.000Z,8.62
2023-05-19T03:48:14.000Z,8.58
2023-05-19T03:49:14.000Z,8.62
2023-05-19T03:50:14.000Z,8.58
2023-05-19T03:51:14.000Z,8.58
2023-05-19T03:52:14.000Z,8.60
2023-05-19T03:53:15.000Z,8.60
2023-05-19T03:54:15.000Z,8.57
2023-05-19T03:55:15.000Z,8.60
2023-05-19T03:56:15.000Z,8.60
2023-05-19T03:57:15.000Z,8.62
2023-05-19T03:58:15.000Z,8.63
2023-05-19T03:59:16.000Z,8.62
2023-05-19T04:00:16.000Z,8.58
2023-05-19T04:01:16.000Z,8.63
2023-05-19T04:02:16.000Z,8.62
2023-05-19T04:03:16.000Z,8.66
2023-05-19T04:04:16.000Z,8.66
2023-05-19T04:05:16.000Z,8.66
2023-05-19T04:06:17.000Z,8.66
2023-05-19T04:07:17.000Z,8.66
2023-05-19T04:08:17.000Z,8.65
2023-05-19T04:09:17.000Z,8.68
2023-05-19T04:10:17.000Z,8.69
2023-05-19T04:11:17.000Z,8.72
2023-05-19T04:12:18.000Z,8.69
2023-05-19T04:13:18.000Z,8.71
2023-05-19T04:14:18.000Z,8.69
2023-05-19T04:15:18.000Z,8.73
2023-05-19T04:16:18.000Z,8.68
2023-05-19T04:17:18.000Z,8.72
2023-05-19T04:18:18.000Z,8.73
2023-05-19T04:19:19.000Z,8.75
2023-05-19T04:20:19.000Z,8.81
2023-05-19T04:21:19.000Z,8.79
2023-05-19T04:22:19.000Z,8.83
2023-05-19T04:23:19.000Z,8.83
2023-05-19T04:24:19.000Z,8.90
2023-05-19T04:25:19.000Z,8.86
2023-05-19T04:26:20.000Z,8.87
2023-05-19T04:27:20.000Z,8.90
2023-05-19T04:28:20.000Z,8.90
2023-05-19T04:29:20.000Z,8.93
2023-05-19T04:30:20.000Z,8.96
2023-05-19T04:31:20.000Z,8.96
2023-05-19T04:32:21.000Z,8.99
2023-05-19T04:33:21.000Z,8.96
2023-05-19T04:34:21.000Z,8.97
2023-05-19T04:35:21.000Z,9.06
2023-05-19T04:36:21.000Z,9.06
2023-05-19T04:37:21.000Z,9.06
2023-05-19T04:38:21.000Z,9.06
2023-05-19T04:39:22.000Z,9.13
2023-05-19T04:40:22.000Z,9.12
2023-05-19T04:41:22.000Z,9.18
2023-05-19T04:42:22.000Z,9.16
2023-05-19T04:43:22.000Z,9.16
2023-05-19T04:44:22.000Z,9.23
2023-05-19T04:45:22.000Z,9.21
2023-05-19T04:46:23.000Z,9.24
2023-05-19T04:47:23.000Z,9.27
2023-05-19T04:48:23.000Z,9.30
2023-05-19T04:49:23.000Z,9.31
2023-05-19T04:50:23.000Z,9.32
2023-05-19T04:51:23.000Z,9.35
2023-05-19T04:52:23.000Z,9.34
2023-05-19T04:53:24.000Z,9.38
2023-05-19T04:54:24.000Z,9.35
2023-05-19T04:55:24.000Z,9.39
2023-05-19T04:56:24.000Z,9.43
2023-05-19T04:57:24.000Z,9.43
2023-05-19T04:58:24.000Z,9.43
2023-05-19T04:59:24.000Z,9.46
2023-05-19T05:00:25.000Z,9.48
2023-05-19T05:01:25.000Z,9.45
2023-05-19T05:02:25.000Z,9.50
2023-05-19T05:03:25.000Z,9.50
2023-05-19T05:04:25.000Z,9.56
2023-05-19T05:05:25.000Z,9.57
2023-05-19T05:06:25.000Z,9.63
2023-05-19T05:07:26.000Z,9.64
2023-05-19T05:08:26.000Z,9.70
2023-05-19T05:09:26.000Z,9.68
2023-05-19T05:10:26.000Z,9.68
2023-05-19T05:11:26.000Z,9.70
2023-05-19T05:12:26.000Z,9.71
2023-05-19T05:13:26.000Z,9.68
2023-05-19T05:14:27.000Z,9.71
2023-05-19T05:15:27.000Z,9.76
2023-05-19T05:16:27.000Z,9.71
2023-05-19T05:17:27.000Z,9.73
2023-05-19T05:18:27.000Z,9.73
2023-05-19T05:19:27.000Z,9.73
2023-05-19T05:20:28.000Z,9.79
2023-05-19T05:21:28.000Z,9.79
2023-05-19T05:22:28.000Z,9.88
2023-05-19T05:23:28.000Z,9.83
2023-05-19T05:24:28.000Z,9.85
2023-05-19T05:25:28.000Z,9.93
2023-05-19T05:26:28.000Z,9.94
2023-05-19T05:27:29.000Z,9.94
2023-05-19T05:28:29.000Z,9.97
2023-05-19T05:29:29.000Z,10.01
2023-05-19T05:30:29.000Z,10.12
2023-05-19T05:31:29.000Z,10.10
2023-05-19T05:32:29.000Z,10.10
2023-05-19T05:33:29.000Z,10.10
2023-05-19T05:34:30.000Z,10.12
2023-05-19T05:35:30.000Z,10.17
2023-05-19T05:36:30.000Z,10.22
2023-05-19T05:37:30.000Z,10.22
2023-05-19T05:38:30.000Z,10.28
2023-05-19T05:39:30.000Z,10.30
2023-05-19T05:40:30.000Z,10.34
2023-05-19T05:41:30.000Z,10.34
2023-05-19T05:42:31.000Z,10.39
2023-05-19T05:43:31.000Z,10.40
2023-05-19T05:44:31.000Z,10.51
2023-05-19T05:45:31.000Z,10.51
2023-05-19T05:46:31.000Z,10.53
2023-05-19T05:47:31.000Z,10.58
2023-05-19T05:48:31.000Z,10.65
2023-05-19T05:49:32.000Z,10.70
2023-05-19T05:50:32.000Z,10.74
2023-05-19T05:51:32.000Z,10.76
2023-05-19T05:52:32.000Z,10.83
2023-05-19T05:53:32.000Z,10.86
2023-05-19T05:54:32.000Z,10.89
2023-05-19T05:55:32.000Z,10.98
2023-05-19T05:56:33.000Z,11.02
2023-05-19T05:57:33.000Z,11.10
2023-05-19T05:58:33.000Z,11.11
2023-05-19T05:59:33.000Z,11.17
2023-05-19T06:00:33.000Z,11.24
2023-05-19T06:01:33.000Z,11.28
2023-05-19T06:02:33.000Z,11.31
2023-05-19T06:03:33.000Z,11.29
2023-05-19T06:04:34.000Z,11.35
2023-05-19T06:05:34.000Z,11.43
2023-05-19T06:06:34.000Z,11.46
2023-05-19T06:07:34.000Z,11.47
2023-05-19T06:08:34.000Z,11.56
2023-05-19T06:09:34.000Z,11.59
2023-05-19T06:10:34.000Z,11.67
2023-05-19T06:11:34.000Z,11.68
2023-05-19T06:12:35.000Z,11.74
2023-05-19T06:13:35.000Z,11.77
2023-05-19T06:14:35.000Z,11.85
2023-05-19T06:15:35.000Z,11.89
2023-05-19T06:16:35.000Z,11.96
2023-05-19T06:17:35.000Z,12.02
2023-05-19T06:18:35.000Z,12.04
2023-05-19T06:19:35.000Z,12.11
2023-05-19T06:20:36.000Z,12.11
2023-05-19T06:21:36.000Z,12.19
2023-05-19T06:22:36.000Z,12.23
2023-05-19T06:23:36.000Z,12.30
2023-05-19T06:24:36.000Z,12.30
2023-05-19T06:25:36.000Z,12.33
2023-05-19T06:26:36.000Z,12.42
2023-05-19T06:27:36.000Z,12.56
2023-05-19T06:28:37.000Z,12.63
2023-05-19T06:29:37.000Z,12.62
2023-05-19T06:30:37.000Z,12.60
2023-05-19T06:31:37.000Z,12.66
2023-05-19T06:32:37.000Z,12.67
2023-05-19T06:33:37.000Z,12.77
2023-05-19T06:34:37.000Z,12.78
2023-05-19T06:35:37.000Z,12.87
2023-05-19T06:36:37.000Z,12.93
2023-05-19T06:37:38.000Z,12.92
2023-05-19T06:38:38.000Z,12.92
2023-05-19T06:39:38.000Z,12.92
2023-05-19T06:40:38.000Z,12.97
2023-05-19T06:41:38.000Z,13.00
2023-05-19T06:42:38.000Z,13.02
2023-05-19T06:43:38.000Z,12.99
2023-05-19T06:44:38.000Z,12.99
2023-05-19T06:45:38.000Z,13.03
2023-05-19T06:46:38.000Z,13.02
2023-05-19T06:47:39.000Z,13.11
2023-05-19T06:48:39.000Z,13.11
2023-05-19T06:49:39.000Z,13.17
2023-05-19T06:50:39.000Z,13.18
2023-05-19T06:51:39.000Z,13.18
2023-05-19T06:52:39.000Z,13.25
2023-05-19T06:53:39.000Z,13.30
2023-05-19T06:54:39.000Z,13.43
2023-05-19T06:55:39.000Z,13.46
2023-05-19T06:56:39.000Z,13.46
2023-05-19T06:57:39.000Z,13.44
2023-05-19T06:58:40.000Z,13.51
2023-05-19T06:59:40.000Z,13.52
2023-05-19T07:00:40.000Z,13.62
2023-05-19T07:01:40.000Z,13.71
2023-05-19T07:02:40.000Z,13.77
2023-05-19T07:03:40.000Z,13.89
2023-05-19T07:04:40.000Z,13.88
2023-05-19T07:05:40.000Z,13.91
2023-05-19T07:06:40.000Z,13.94
2023-05-19T07:07:40.000Z,13.96
2023-05-19T07:08:40.000Z,14.06
2023-05-19T07:09:41.000Z,14.07
2023-05-19T07:10:41.000Z,14.09
2023-05-19T07:11:41.000Z,14.06
2023-05-19T07:12:41.000Z,14.04
2023-05-19T07:13:41.000Z,14.09
2023-05-19T07:14:41.000Z,14.14
2023-05-19T07:15:41.000Z,14.12
2023-05-19T07:16:41.000Z,14.21
2023-05-19T07:17:41.000Z,14.21
2023-05-19T07:18:41.000Z,14.24
2023-05-19T07:19:41.000Z,14.31
2023-05-19T07:20:41.000Z,14.39
2023-05-19T07:21:41.000Z,14.49
2023-05-19T07:22:42.000Z,14.62
2023-05-19T07:23:42.000Z,14.68
2023-05-19T07:24:42.000Z,14.72
2023-05-19T07:25:42.000Z,14.86
2023-05-19T07:26:42.000Z,14.86
2023-05-19T07:27:42.000Z,14.87
2023-05-19T07:28:42.000Z,14.91
2023-05-19T07:29:42.000Z,14.94
2023-05-19T07:30:42.000Z,14.93
2023-05-19T07:31:42.000Z,14.98
2023-05-19T07:32:42.000Z,15.03
2023-05-19T07:33:42.000Z,15.02
2023-05-19T07:34:43.000Z,15.08
2023-05-19T07:35:43.000Z,15.11
2023-05-19T07:36:43.000Z,15.17
2023-05-19T07:37:43.000Z,15.21
2023-05-19T07:38:43.000Z,15.30
2023-05-19T07:39:43.000Z,15.42
2023-05-19T07:40:43.000Z,15.48
2023-05-19T07:41:43.000Z,15.54
2023-05-19T07:42:43.000Z,15.57
2023-05-19T07:43:43.000Z,15.63
2023-05-19T07:44:43.000Z,15.68
2023-05-19T07:45:43.000Z,15.75
2023-05-19T07:46:43.000Z,15.72
2023-05-19T07:47:44.000Z,15.78
2023-05-19T07:48:44.000Z,15.82
2023-05-19T07:49:44.000Z,15.82
2023-05-19T07:50:44.000Z,15.76
2023-05-19T07:51:44.000Z,15.78
2023-05-19T07:52:44.000Z,15.70
2023-05-19T07:53:44.000Z,15.76
2023-05-19T07:54:44.000Z,15.78
2023-05-19T07:55:44.000Z,15.78
2023-05-19T07:56:44.000Z,15.70
2023-05-19T07:57:44.000Z,15.59
2023-05-19T07:58:44.000Z,15.56
2023-05-19T07:59:44.000Z,15.48
2023-05-19T08:00:44.000Z,15.36
2023-05-19T08:01:45.000Z,15.39
2023-05-19T08:02:45.000Z,15.42
2023-05-19T08:03:45.000Z,15.43
2023-05-19T08:04:45.000Z,15.49
2023-05-19T08:05:45.000Z,15.51
2023-05-19T08:06:45.000Z,15.56
2023-05-19T08:07:45.000Z,15.52
2023-05-19T08:08:45.000Z,15.52
2023-05-19T08:09:45.000Z,15.51
2023-05-19T08:10:45.000Z,15.54
2023-05-19T08:11:45.000Z,15.60
2023-05-19T08:12:45.000Z,15.74
2023-05-19T08:13:45.000Z,15.85
2023-05-19T08:14:46.000Z,15.97
2023-05-19T08:15:46.000Z,15.99
2023-05-19T08:16:46.000Z,16.01
2023-05-19T08:17:46.000Z,16.01
2023-05-19T08:18:46.000Z,16.01
2023-05-19T08:19:46.000Z,16.01
2023-05-19T08:20:46.000Z,15.89
2023-05-19T08:21:46.000Z,15.85
2023-05-19T08:22:46.000Z,15.85
2023-05-19T08:23:46.000Z,15.85
2023-05-19T08:24:46.000Z,15.89
2023-05-19T08:25:46.000Z,15.88
2023-05-19T08:26:46.000Z,15.96
2023-05-19T08:27:46.000Z,15.96
2023-05-19T08:28:47.000Z,15.94
2023-05-19T08:29:47.000Z,15.89
2023-05-19T08:30:47.000Z,15.85
2023-05-19T08:31:47.000Z,15.79
2023-05-19T08:32:47.000Z,15.79
2023-05-19T08:33:47.000Z,15.70
2023-05-19T08:34:47.000Z,15.74
2023-05-19T08:35:47.000Z,15.75
2023-05-19T08:36:47.000Z,15.74
2023-05-19T08:37:47.000Z,15.75
2023-05-19T08:38:47.000Z,15.70
2023-05-19T08:39:47.000Z,15.72
2023-05-19T08:40:47.000Z,15.70
2023-05-19T08:41:47.000Z,15.68
2023-05-19T08:42:47.000Z,15.72
2023-05-19T08:43:47.000Z,15.74
2023-05-19T08:44:48.000Z,15.78
2023-05-19T08:45:48.000Z,15.82
2023-05-19T08:46:48.000Z,15.96
2023-05-19T08:47:48.000Z,15.96
2023-05-19T08:48:48.000Z,16.01
2023-05-19T08:49:48.000Z,16.14
2023-05-19T08:50:48.000Z,16.18
2023-05-19T08:51:48.000Z,16.18
2023-05-19T08:52:48.000Z,16.25
2023-05-19T08:53:48.000Z,16.27
2023-05-19T08:54:48.000Z,16.33
2023-05-19T08:55:48.000Z,16.38
2023-05-19T08:56:48.000Z,16.42
2023-05-19T08:57:48.000Z,16.44
2023-05-19T08:58:49.000Z,16.44
2023-05-19T08:59:49.000Z,16.45
2023-05-19T09:00:49.000Z,16.48
2023-05-19T09:01:49.000Z,16.55
2023-05-19T09:02:49.000Z,16.62
2023-05-19T09:03:49.000Z,16.63
2023-05-19T09:04:49.000Z,16.58
2023-05-19T09:05:49.000Z,16.48
2023-05-19T09:06:49.000Z,16.38
2023-05-19T09:07:49.000Z,16.37
2023-05-19T09:08:49.000Z,16.37
2023-05-19T09:09:49.000Z,16.38
2023-05-19T09:10:49.000Z,16.42
2023-05-19T09:11:49.000Z,16.40
2023-05-19T09:12:49.000Z,16.40
2023-05-19T09:13:49.000Z,16.40
2023-05-19T09:14:50.000Z,16.31
2023-05-19T09:15:50.000Z,16.35
2023-05-19T09:16:50.000Z,16.35
2023-05-19T09:17:50.000Z,16.42
2023-05-19T09:18:50.000Z,16.55
2023-05-19T09:19:50.000Z,16.63
2023-05-19T09:20:50.000Z,16.70
2023-05-19T09:21:50.000Z,16.71
2023-05-19T09:22:50.000Z,16.75
2023-05-19T09:23:50.000Z,16.83
2023-05-19T09:24:50.000Z,16.86
2023-05-19T09:25:50.000Z,16.86
2023-05-19T09:26:50.000Z,16.92
2023-05-19T09:27:50.000Z,16.95
2023-05-19T09:28:50.000Z,16.95
2023-05-19T09:29:50.000Z,16.99
2023-05-19T09:30:50.000Z,17.03
2023-05-19T09:31:51.000Z,17.06
2023-05-19T09:32:51.000Z,17.06
2023-05-19T09:33:51.000Z,16.92
2023-05-19T09:34:51.000Z,16.96
2023-05-19T09:35:51.000Z,16.98
2023-05-19T09:36:51.000Z,17.00
2023-05-19T09:37:51.000Z,16.98
2023-05-19T09:38:51.000Z,17.04
2023-05-19T09:39:51.000Z,17.06
2023-05-19T09:40:51.000Z,17.06
2023-05-19T09:41:51.000Z,16.98
2023-05-19T09:42:51.000Z,16.95
2023-05-19T09:43:51.000Z,16.90
2023-05-19T09:44:51.000Z,16.88
2023-05-19T09:45:51.000Z,16.86
2023-05-19T09:46:51.000Z,16.71
2023-05-19T09:47:51.000Z,16.71
2023-05-19T09:48:52.000Z,16.73
2023-05-19T09:49:52.000Z,16.73
2023-05-19T09:50:52.000Z,16.77
2023-05-19T09:51:52.000Z,16.74
2023-05-19T09:52:52.000Z,16.71
2023-05-19T09:53:52.000Z,16.71
2023-05-19T09:54:52.000Z,16.73
2023-05-19T09:55:52.000Z,16.77
2023-05-19T09:56:52.000Z,16.78
2023-05-19T09:57:52.000Z,16.80
2023-05-19T09:58:52.000Z,16.89
2023-05-19T09:59:52.000Z,16.93
2023-05-19T10:00:52.000Z,16.93
2023-05-19T10:01:52.000Z,16.98
2023-05-19T10:02:52.000Z,17.07
2023-05-19T10:03:53.000Z,17.15
2023-05-19T10:04:53.000Z,17.11
2023-05-19T10:05:53.000Z,17.18
2023-05-19T10:06:53.000Z,17.13
2023-05-19T10:07:53.000Z,17.17
2023-05-19T10:08:53.000Z,17.18
2023-05-19T10:09:53.000Z,17.28
2023-05-19T10:10:53.000Z,17.28
2023-05-19T10:11:53.000Z,17.36
2023-05-19T10:12:53.000Z,17.47
2023-05-19T10:13:53.000Z,17.57
2023-05-19T10:14:53.000Z,17.67
2023-05-19T10:15:53.000Z,17.73
2023-05-19T10:16:53.000Z,17.78
2023-05-19T10:17:53.000Z,17.70
2023-05-19T10:18:54.000Z,17.51
2023-05-19T10:19:54.000Z,17.43
2023-05-19T10:20:54.000Z,17.43
2023-05-19T10:21:54.000Z,17.35
2023-05-19T10:22:54.000Z,17.32
2023-05-19T10:23:54.000Z,17.29
2023-05-19T10:24:54.000Z,17.40
2023-05-19T10:25:54.000Z,17.47
2023-05-19T10:26:54.000Z,17.55
2023-05-19T10:27:54.000Z,17.57
2023-05-19T10:28:54.000Z,17.64
2023-05-19T10:29:54.000Z,17.70
2023-05-19T10:30:54.000Z,17.66
2023-05-19T10:31:54.000Z,17.64
2023-05-19T10:32:54.000Z,17.62
2023-05-19T10:33:55.000Z,17.53
2023-05-19T10:34:55.000Z,17.57
2023-05-19T10:35:55.000Z,17.50
2023-05-19T10:36:55.000Z,17.53
2023-05-19T10:37:55.000Z,17.55
2023-05-19T10:38:55.000Z,17.55
2023-05-19T10:39:55.000Z,17.63
2023-05-19T10:40:55.000Z,17.64
2023-05-19T10:41:55.000Z,17.66
2023-05-19T10:42:55.000Z,17.62
2023-05-19T10:43:55.000Z,17.57
2023-05-19T10:44:55.000Z,17.46
2023-05-19T10:45:55.000Z,17.43
2023-05-19T10:46:55.000Z,17.40
2023-05-19T10:47:56.000Z,17.43
2023-05-19T10:48:56.000Z,17.51
2023-05-19T10:49:56.000Z,17.55
2023-05-19T10:50:56.000Z,17.59
2023-05-19T10:51:56.000Z,17.59
2023-05-19T10:52:56.000Z,17.64
2023-05-19T10:53:56.000Z,17.66
2023-05-19T10:54:56.000Z,17.67
2023-05-19T10:55:56.000Z,17.66
2023-05-19T10:56:56.000Z,17.57
2023-05-19T10:57:56.000Z,17.55
2023-05-19T10:58:56.000Z,17.54
2023-05-19T10:59:56.000Z,17.54
2023-05-19T11:00:56.000Z,17.57
2023-05-19T11:02:03.000Z,17.62
2023-05-19T11:02:57.000Z,17.62
2023-05-19T11:03:57.000Z,17.62
2023-05-19T11:04:57.000Z,17.59
2023-05-19T11:05:57.000Z,17.64
2023-05-19T11:06:57.000Z,17.70
2023-05-19T11:07:57.000Z,17.84
2023-05-19T11:08:57.000Z,17.92
2023-05-19T11:09:57.000Z,18.00
2023-05-19T11:10:57.000Z,18.00
2023-05-19T11:11:57.000Z,18.00
2023-05-19T11:12:57.000Z,18.02
2023-05-19T11:13:57.000Z,18.03
2023-05-19T11:14:57.000Z,18.12
2023-05-19T11:15:58.000Z,18.19
2023-05-19T11:16:58.000Z,18.21
2023-05-19T11:17:58.000Z,18.29
2023-05-19T11:18:58.000Z,18.33
2023-05-19T11:19:58.000Z,18.34
2023-05-19T11:20:58.000Z,18.33
2023-05-19T11:21:58.000Z,18.36
2023-05-19T11:22:58.000Z,18.25
2023-05-19T11:23:58.000Z,18.22
2023-05-19T11:24:58.000Z,18.24
2023-05-19T11:25:58.000Z,18.22
2023-05-19T11:27:05.000Z,18.18
2023-05-19T11:27:58.000Z,18.15
2023-05-19T11:28:58.000Z,18.02
2023-05-19T11:29:58.000Z,17.99
2023-05-19T11:30:59.000Z,17.91
2023-05-19T11:31:59.000Z,17.91
2023-05-19T11:32:59.000Z,17.91
2023-05-19T11:33:59.000Z,17.95
2023-05-19T11:34:59.000Z,17.97
2023-05-19T11:35:59.000Z,18.04
2023-05-19T11:36:59.000Z,18.03
2023-05-19T11:37:59.000Z,18.06
2023-05-19T11:38:59.000Z,18.09
2023-05-19T11:39:59.000Z,18.17
2023-05-19T11:40:59.000Z,18.15
2023-05-19T11:41:59.000Z,18.07
2023-05-19T11:42:59.000Z,18.04
2023-05-19T11:43:59.000Z,18.07
2023-05-19T11:44:59.000Z,18.06
2023-05-19T11:46:00.000Z,18.12
2023-05-19T11:47:00.000Z,18.21
2023-05-19T11:48:00.000Z,18.27
2023-05-19T11:49:00.000Z,18.36
2023-05-19T11:50:00.000Z,18.40
2023-05-19T11:51:00.000Z,18.49
2023-05-19T11:52:00.000Z,18.52
2023-05-19T11:53:00.000Z,18.58
2023-05-19T11:54:00.000Z,18.62
2023-05-19T11:55:00.000Z,18.70
2023-05-19T11:56:00.000Z,18.80
2023-05-19T11:57:00.000Z,18.92
2023-05-19T11:58:00.000Z,18.90
2023-05-19T11:59:00.000Z,18.92
2023-05-19T12:00:00.000Z,18.94
2023-05-19T12:01:00.000Z,18.95
2023-05-19T12:02:00.000Z,18.98
2023-05-19T12:03:01.000Z,19.08
2023-05-19T12:04:01.000Z,19.06
2023-05-19T12:05:01.000Z,19.06
2023-05-19T12:06:01.000Z,19.11
2023-05-19T12:07:01.000Z,19.13
2023-05-19T12:08:01.000Z,19.18
2023-05-19T12:09:01.000Z,19.25
2023-05-19T12:10:01.000Z,19.38
2023-05-19T12:11:01.000Z,19.46
2023-05-19T12:12:01.000Z,19.36
2023-05-19T12:13:01.000Z,19.28
2023-05-19T12:14:01.000Z,19.24
2023-05-19T12:15:01.000Z,19.06
2023-05-19T12:16:01.000Z,18.92
2023-05-19T12:17:01.000Z,18.82
2023-05-19T12:18:01.000Z,18.68
2023-05-19T12:19:01.000Z,18.59
2023-05-19T12:20:01.000Z,18.50
2023-05-19T12:21:02.000Z,18.49
2023-05-19T12:22:02.000Z,18.52
2023-05-19T12:23:02.000Z,18.46
2023-05-19T12:24:02.000Z,18.52
2023-05-19T12:25:02.000Z,18.58
2023-05-19T12:26:02.000Z,18.64
2023-05-19T12:27:02.000Z,18.64
2023-05-19T12:28:02.000Z,18.67
2023-05-19T12:29:02.000Z,18.65
2023-05-19T12:30:02.000Z,18.62
2023-05-19T12:31:02.000Z,18.54
2023-05-19T12:32:02.000Z,18.57
2023-05-19T12:33:02.000Z,18.61
2023-05-19T12:34:02.000Z,18.62
2023-05-19T12:35:02.000Z,18.73
2023-05-19T12:36:02.000Z,18.83
2023-05-19T12:37:02.000Z,18.84
2023-05-19T12:38:02.000Z,18.83
2023-05-19T12:39:02.000Z,18.86
2023-05-19T12:40:02.000Z,18.84
2023-05-19T12:41:03.000Z,18.91
2023-05-19T12:42:03.000Z,18.86
2023-05-19T12:43:03.000Z,18.94
2023-05-19T12:44:03.000Z,19.05
2023-05-19T12:45:03.000Z,19.10
2023-05-19T12:46:03.000Z,19.15
2023-05-19T12:47:03.000Z,19.18
2023-05-19T12:48:03.000Z,19.21
2023-05-19T12:49:03.000Z,19.23
2023-05-19T12:50:03.000Z,19.31
2023-05-19T12:51:03.000Z,19.31
2023-05-19T12:52:03.000Z,19.31
2023-05-19T12:53:03.000Z,19.36
2023-05-19T12:54:03.000Z,19.38
2023-05-19T12:55:03.000Z,19.33
2023-05-19T12:56:03.000Z,19.35
2023-05-19T12:57:03.000Z,19.40
2023-05-19T12:58:03.000Z,19.40
2023-05-19T12:59:03.000Z,19.47
2023-05-19T13:00:03.000Z,19.38
2023-05-19T13:01:03.000Z,19.32
2023-05-19T13:02:04.000Z,19.21
2023-05-19T13:03:04.000Z,19.11
2023-05-19T13:04:04.000Z,19.05